sensor_id;sensor_type;location;lat;lon;timestamp;pressure;altitude;pressure_sealevel;temperature;humidity
12073;BME280;6098;49.004;8.372;2024-02-28T00:10:33;100468.17;;;8.42;78.45
12073;BME280;6098;49.004;8.372;2024-02-28T00:25:24;100479.01;;;8.33;78.00
12073;BME280;6098;49.004;8.372;2024-02-28T00:40:14;100497.84;;;8.03;78.01
12073;BME280;6098;49.004;8.372;2024-02-28T00:55:06;100490.13;;;7.95;77.49
12073;BME280;6098;49.004;8.372;2024-02-28T01:09:58;100493.95;;;7.84;78.22
12073;BME280;6098;49.004;8.372;2024-02-28T01:24:49;100505.02;;;7.64;78.54
12073;BME280;6098;49.004;8.372;2024-02-28T01:39:40;100500.77;;;7.58;78.69
12073;BME280;6098;49.004;8.372;2024-02-28T01:54:29;100517.63;;;7.34;79.85
12073;BME280;6098;49.004;8.372;2024-02-28T02:09:19;100521.33;;;7.26;80.55
12073;BME280;6098;49.004;8.372;2024-02-28T02:24:12;100534.59;;;7.22;80.93
12073;BME280;6098;49.004;8.372;2024-02-28T02:39:03;100557.82;;;7.06;82.02
12073;BME280;6098;49.004;8.372;2024-02-28T02:53:56;100570.47;;;7.10;82.00
12073;BME280;6098;49.004;8.372;2024-02-28T03:08:47;100603.83;;;7.11;82.26
12073;BME280;6098;49.004;8.372;2024-02-28T03:23:38;100602.98;;;7.08;82.80
12073;BME280;6098;49.004;8.372;2024-02-28T03:38:29;100613.34;;;6.75;83.12
12073;BME280;6098;49.004;8.372;2024-02-28T03:53:20;100625.81;;;6.89;82.82
12073;BME280;6098;49.004;8.372;2024-02-28T04:08:10;100641.98;;;6.92;82.64
12073;BME280;6098;49.004;8.372;2024-02-28T04:23:03;100654.50;;;6.82;83.20
12073;BME280;6098;49.004;8.372;2024-02-28T04:37:55;100676.81;;;6.62;83.68
12073;BME280;6098;49.004;8.372;2024-02-28T04:52:46;100683.23;;;6.48;83.97
12073;BME280;6098;49.004;8.372;2024-02-28T05:07:37;100710.71;;;6.56;84.01
12073;BME280;6098;49.004;8.372;2024-02-28T05:22:28;100723.38;;;6.60;84.00
12073;BME280;6098;49.004;8.372;2024-02-28T05:37:19;100716.70;;;6.65;83.22
12073;BME280;6098;49.004;8.372;2024-02-28T05:52:10;100734.23;;;6.41;85.04
12073;BME280;6098;49.004;8.372;2024-02-28T06:07:00;100732.42;;;6.16;85.87
12073;BME280;6098;49.004;8.372;2024-02-28T06:21:51;100741.53;;;5.94;86.42
12073;BME280;6098;49.004;8.372;2024-02-28T06:36:42;100775.67;;;5.64;87.11
12073;BME280;6098;49.004;8.372;2024-02-28T06:51:34;100784.31;;;5.74;86.55
12073;BME280;6098;49.004;8.372;2024-02-28T07:06:29;100808.66;;;5.55;87.62
12073;BME280;6098;49.004;8.372;2024-02-28T07:21:19;100830.53;;;5.60;87.57
12073;BME280;6098;49.004;8.372;2024-02-28T07:36:11;100861.62;;;5.61;87.61
12073;BME280;6098;49.004;8.372;2024-02-28T07:51:04;100872.48;;;5.68;87.15
12073;BME280;6098;49.004;8.372;2024-02-28T08:05:54;100884.27;;;5.74;86.93
12073;BME280;6098;49.004;8.372;2024-02-28T08:20:46;100874.50;;;5.83;86.26
12073;BME280;6098;49.004;8.372;2024-02-28T08:35:37;100864.50;;;6.16;85.16
12073;BME280;6098;49.004;8.372;2024-02-28T08:50:31;100879.88;;;6.44;83.96
12073;BME280;6098;49.004;8.372;2024-02-28T09:05:23;100888.19;;;6.78;82.51
12073;BME280;6098;49.004;8.372;2024-02-28T09:20:14;100895.35;;;6.97;82.37
12073;BME280;6098;49.004;8.372;2024-02-28T09:35:06;100904.86;;;7.33;81.00
12073;BME280;6098;49.004;8.372;2024-02-28T09:49:58;100919.30;;;7.61;80.27
12073;BME280;6098;49.004;8.372;2024-02-28T10:04:56;100917.67;;;7.99;78.53
12073;BME280;6098;49.004;8.372;2024-02-28T10:19:48;100937.70;;;8.32;77.13
12073;BME280;6098;49.004;8.372;2024-02-28T10:34:39;100952.06;;;8.61;75.54
12073;BME280;6098;49.004;8.372;2024-02-28T10:49:32;100955.26;;;9.13;74.03
12073;BME280;6098;49.004;8.372;2024-02-28T11:04:25;100955.63;;;9.34;72.35
12073;BME280;6098;49.004;8.372;2024-02-28T11:19:20;100970.77;;;9.29;70.54
12073;BME280;6098;49.004;8.372;2024-02-28T11:34:13;100961.63;;;9.42;70.47
12073;BME280;6098;49.004;8.372;2024-02-28T11:49:05;100954.42;;;9.65;68.91
12073;BME280;6098;49.004;8.372;2024-02-28T12:03:58;100950.78;;;9.86;66.74
12073;BME280;6098;49.004;8.372;2024-02-28T12:18:49;100927.08;;;10.14;65.81
12073;BME280;6098;49.004;8.372;2024-02-28T12:33:43;100911.72;;;10.55;62.32
12073;BME280;6098;49.004;8.372;2024-02-28T12:48:38;100895.18;;;10.89;61.68
12073;BME280;6098;49.004;8.372;2024-02-28T13:03:33;100881.77;;;11.33;60.58
12073;BME280;6098;49.004;8.372;2024-02-28T13:18:25;100868.17;;;11.42;60.83
12073;BME280;6098;49.004;8.372;2024-02-28T13:33:17;100867.75;;;11.55;59.25
12073;BME280;6098;49.004;8.372;2024-02-28T13:48:15;100853.15;;;11.68;56.92
12073;BME280;6098;49.004;8.372;2024-02-28T14:03:12;100846.87;;;11.94;57.40
12073;BME280;6098;49.004;8.372;2024-02-28T14:18:01;100837.27;;;11.78;56.75
12073;BME280;6098;49.004;8.372;2024-02-28T14:32:54;100832.34;;;11.91;56.44
12073;BME280;6098;49.004;8.372;2024-02-28T14:47:46;100834.61;;;11.78;56.44
12073;BME280;6098;49.004;8.372;2024-02-28T15:02:39;100830.61;;;11.79;56.04
12073;BME280;6098;49.004;8.372;2024-02-28T15:17:33;100826.02;;;11.72;55.02
12073;BME280;6098;49.004;8.372;2024-02-28T15:32:24;100826.78;;;11.74;54.84
12073;BME280;6098;49.004;8.372;2024-02-28T15:47:15;100823.36;;;11.72;54.68
12073;BME280;6098;49.004;8.372;2024-02-28T16:02:09;100830.91;;;11.58;55.82
12073;BME280;6098;49.004;8.372;2024-02-28T16:16:59;100835.33;;;11.58;56.09
12073;BME280;6098;49.004;8.372;2024-02-28T16:31:50;100849.45;;;11.47;56.17
12073;BME280;6098;49.004;8.372;2024-02-28T16:46:41;100840.55;;;11.35;56.49
12073;BME280;6098;49.004;8.372;2024-02-28T17:01:31;100860.71;;;11.02;60.26
12073;BME280;6098;49.004;8.372;2024-02-28T17:16:21;100864.25;;;10.75;61.58
12073;BME280;6098;49.004;8.372;2024-02-28T17:31:12;100867.66;;;10.51;62.70
12073;BME280;6098;49.004;8.372;2024-02-28T17:46:03;100865.16;;;10.31;63.72
12073;BME280;6098;49.004;8.372;2024-02-28T18:00:54;100873.59;;;10.16;64.40
12073;BME280;6098;49.004;8.372;2024-02-28T18:15:45;100884.31;;;9.95;65.22
12073;BME280;6098;49.004;8.372;2024-02-28T18:30:36;100885.84;;;9.72;66.09
12073;BME280;6098;49.004;8.372;2024-02-28T18:45:27;100873.90;;;9.57;66.61
12073;BME280;6098;49.004;8.372;2024-02-28T19:00:18;100862.05;;;9.38;67.44
12073;BME280;6098;49.004;8.372;2024-02-28T19:15:11;100864.05;;;9.30;68.26
12073;BME280;6098;49.004;8.372;2024-02-28T19:30:02;100847.66;;;9.15;68.74
12073;BME280;6098;49.004;8.372;2024-02-28T19:44:53;100853.33;;;9.00;69.81
12073;BME280;6098;49.004;8.372;2024-02-28T19:59:45;100850.70;;;8.82;70.67
12073;BME280;6098;49.004;8.372;2024-02-28T20:14:35;100847.36;;;8.74;71.53
12073;BME280;6098;49.004;8.372;2024-02-28T20:29:27;100846.35;;;8.62;72.06
12073;BME280;6098;49.004;8.372;2024-02-28T20:44:17;100856.13;;;8.58;72.50
12073;BME280;6098;49.004;8.372;2024-02-28T20:59:07;100841.37;;;8.30;73.65
12073;BME280;6098;49.004;8.372;2024-02-28T21:13:59;100835.66;;;8.08;74.47
12073;BME280;6098;49.004;8.372;2024-02-28T21:28:52;100831.11;;;7.94;74.61
12073;BME280;6098;49.004;8.372;2024-02-28T21:43:43;100809.87;;;7.78;75.32
12073;BME280;6098;49.004;8.372;2024-02-28T21:58:34;100798.67;;;7.67;75.98
12073;BME280;6098;49.004;8.372;2024-02-28T22:13:25;100785.31;;;7.54;76.28
12073;BME280;6098;49.004;8.372;2024-02-28T22:28:17;100769.94;;;7.32;77.09
12073;BME280;6098;49.004;8.372;2024-02-28T22:43:09;100757.52;;;7.15;77.77
12073;BME280;6098;49.004;8.372;2024-02-28T22:58:01;100760.64;;;6.88;78.89
12073;BME280;6098;49.004;8.372;2024-02-28T23:12:52;100751.06;;;6.58;80.00
12073;BME280;6098;49.004;8.372;2024-02-28T23:27:41;100742.88;;;6.48;80.73
12073;BME280;6098;49.004;8.372;2024-02-28T23:42:32;100731.28;;;6.33;80.84
12073;BME280;6098;49.004;8.372;2024-02-28T23:57:23;100717.27;;;6.04;82.30
